Ana Sayfa
METAR-TAF:

METAR-TAF

Havaalanları :

Monclova, Meksika

Enlem: 26-53N, Boylam: 101-25W, yükseklik: 615 m

Güncel hava durumu gözlemi

Rapor saat 18:40 UTC de 5 saat ve 25 dakika önce yapıldı.
Sakin rüzgar
Sıcaklık 26°C
Nem 37%
Basınç 1018 hPa
Görüş mesafesi: 12.9 km
5000 ft yükseklikte az bulutlu

METAR: MMMV 261840Z 00000KT 8SM FEW050 26/10 A3006 RMK 8/100 HZY

Saat: 18:05 (00:05 UTC)

Tahmin

Rapor saat 17:20 UTC de 6 saat ve 45 dakika önce yapıldı.
Ayın 26'si saat 18 UTC'den ayın 27'si saat 18 UTC'ye kadar geçerli Tahmin
Rüzgar kuzey/kuzeybatıdan 15 kt
Görüş mesafesi: 10 km
Açık gökyüzü
Dönüşüyor
ayın 27'si saat 02 UTC'den ayın 27'si saat 03 UTC'ye kadar
Rüzgar doğudan 10 kt
Ayın 27'si saat 1600 UTC'den
Rüzgar güney/güneydoğudan 10 kt
Görüş mesafesi: 10 km
Açık gökyüzü

TAF: MMMV 261720Z 2618/2718 330015KT P6SM SKC BECMG 2702/2703 10010KT FM271600 16010KT P6SM SKC

4.000'den fazla havaalanı için hava durumu gözlemleri ve tahminleri (METAR ve TAF raporları).

Kullanılabilir istasyonlar harita üzerinde sarı ve kırmızı noktalarla gösterilir.

İstasyonun adını görmek için fareyi noktanın üzerinde gezdirin.

Sonrasında hava gözlem ve tahminlerini görmek için tıklayın.

Haritayı değiştirmek için: yaklaştırmak için siyah artı işaretli yeşil düğmeye ve uzaklaştırmak için de eksi işaretli düğmeye hızla tıklayın; bitişik haritalar için yeşil okları kullanın.


METAR-TAF: